sensor_id;sensor_type;location;lat;lon;timestamp;P1;durP1;ratioP1;P2;durP2;ratioP2
17818;SDS011;9034;50.284;19.310;2022-11-11T00:01:02;174.52;;;49.83;;
17818;SDS011;9034;50.284;19.310;2022-11-11T00:02:25;110.13;;;41.55;;
17818;SDS011;9034;50.284;19.310;2022-11-11T00:03:47;198.02;;;48.67;;
17818;SDS011;9034;50.284;19.310;2022-11-11T00:05:10;164.55;;;49.08;;
17818;SDS011;9034;50.284;19.310;2022-11-11T00:06:31;341.73;;;59.40;;
17818;SDS011;9034;50.284;19.310;2022-11-11T00:07:54;198.23;;;49.33;;
17818;SDS011;9034;50.284;19.310;2022-11-11T00:09:19;241.25;;;49.60;;
17818;SDS011;9034;50.284;19.310;2022-11-11T00:10:41;224.40;;;55.15;;
17818;SDS011;9034;50.284;19.310;2022-11-11T00:12:03;287.67;;;61.58;;
17818;SDS011;9034;50.284;19.310;2022-11-11T00:13:26;250.10;;;57.33;;
17818;SDS011;9034;50.284;19.310;2022-11-11T00:14:48;163.13;;;51.95;;
17818;SDS011;9034;50.284;19.310;2022-11-11T00:16:12;130.00;;;46.55;;
17818;SDS011;9034;50.284;19.310;2022-11-11T00:17:35;215.45;;;54.17;;
17818;SDS011;9034;50.284;19.310;2022-11-11T00:19:14;263.92;;;51.22;;
17818;SDS011;9034;50.284;19.310;2022-11-11T00:20:56;186.63;;;54.30;;
17818;SDS011;9034;50.284;19.310;2022-11-11T00:22:37;116.88;;;40.53;;
17818;SDS011;9034;50.284;19.310;2022-11-11T00:24:21;104.05;;;38.88;;
17818;SDS011;9034;50.284;19.310;2022-11-11T00:26:02;190.85;;;48.25;;
17818;SDS011;9034;50.284;19.310;2022-11-11T00:27:45;152.05;;;46.65;;
17818;SDS011;9034;50.284;19.310;2022-11-11T00:29:08;171.23;;;48.42;;
17818;SDS011;9034;50.284;19.310;2022-11-11T00:30:29;156.90;;;47.10;;
17818;SDS011;9034;50.284;19.310;2022-11-11T00:31:52;167.82;;;44.40;;
17818;SDS011;9034;50.284;19.310;2022-11-11T00:33:32;250.13;;;52.10;;
17818;SDS011;9034;50.284;19.310;2022-11-11T00:34:57;308.80;;;52.80;;
17818;SDS011;9034;50.284;19.310;2022-11-11T00:36:36;234.32;;;49.72;;
17818;SDS011;9034;50.284;19.310;2022-11-11T00:38:07;261.35;;;48.17;;
17818;SDS011;9034;50.284;19.310;2022-11-11T00:39:28;137.02;;;42.72;;
17818;SDS011;9034;50.284;19.310;2022-11-11T00:40:51;156.07;;;43.95;;
17818;SDS011;9034;50.284;19.310;2022-11-11T00:42:12;115.20;;;38.05;;
17818;SDS011;9034;50.284;19.310;2022-11-11T00:43:35;136.93;;;43.65;;
17818;SDS011;9034;50.284;19.310;2022-11-11T00:44:57;332.25;;;58.63;;
17818;SDS011;9034;50.284;19.310;2022-11-11T00:46:20;203.75;;;51.72;;
17818;SDS011;9034;50.284;19.310;2022-11-11T00:48:01;134.23;;;44.60;;
17818;SDS011;9034;50.284;19.310;2022-11-11T00:49:42;150.27;;;45.35;;
17818;SDS011;9034;50.284;19.310;2022-11-11T00:51:21;324.08;;;62.67;;
17818;SDS011;9034;50.284;19.310;2022-11-11T00:52:44;135.70;;;44.63;;
17818;SDS011;9034;50.284;19.310;2022-11-11T00:54:06;185.85;;;47.28;;
17818;SDS011;9034;50.284;19.310;2022-11-11T00:55:29;273.25;;;48.90;;
17818;SDS011;9034;50.284;19.310;2022-11-11T00:56:50;215.88;;;47.33;;
17818;SDS011;9034;50.284;19.310;2022-11-11T00:58:13;259.65;;;55.75;;
17818;SDS011;9034;50.284;19.310;2022-11-11T00:59:36;304.95;;;59.85;;
17818;SDS011;9034;50.284;19.310;2022-11-11T01:00:59;272.00;;;52.33;;
17818;SDS011;9034;50.284;19.310;2022-11-11T01:02:20;176.60;;;43.10;;
17818;SDS011;9034;50.284;19.310;2022-11-11T01:03:44;180.70;;;45.63;;
17818;SDS011;9034;50.284;19.310;2022-11-11T01:05:07;167.32;;;49.00;;
17818;SDS011;9034;50.284;19.310;2022-11-11T01:06:29;139.77;;;44.08;;
17818;SDS011;9034;50.284;19.310;2022-11-11T01:07:52;188.90;;;49.65;;
17818;SDS011;9034;50.284;19.310;2022-11-11T01:09:13;235.73;;;54.70;;
17818;SDS011;9034;50.284;19.310;2022-11-11T01:10:37;199.73;;;47.30;;
17818;SDS011;9034;50.284;19.310;2022-11-11T01:12:00;135.57;;;43.15;;
17818;SDS011;9034;50.284;19.310;2022-11-11T01:13:23;212.32;;;53.72;;
17818;SDS011;9034;50.284;19.310;2022-11-11T01:14:46;127.82;;;42.67;;
17818;SDS011;9034;50.284;19.310;2022-11-11T01:16:10;122.28;;;43.60;;
17818;SDS011;9034;50.284;19.310;2022-11-11T01:17:33;129.38;;;43.53;;
17818;SDS011;9034;50.284;19.310;2022-11-11T01:18:57;115.65;;;40.97;;
17818;SDS011;9034;50.284;19.310;2022-11-11T01:20:19;214.55;;;53.90;;
17818;SDS011;9034;50.284;19.310;2022-11-11T01:21:41;119.63;;;44.30;;
17818;SDS011;9034;50.284;19.310;2022-11-11T01:23:09;129.70;;;48.25;;
17818;SDS011;9034;50.284;19.310;2022-11-11T01:24:30;152.52;;;50.90;;
17818;SDS011;9034;50.284;19.310;2022-11-11T01:25:52;132.13;;;46.92;;
17818;SDS011;9034;50.284;19.310;2022-11-11T01:27:14;132.68;;;45.58;;
17818;SDS011;9034;50.284;19.310;2022-11-11T01:28:36;108.35;;;44.03;;
17818;SDS011;9034;50.284;19.310;2022-11-11T01:29:58;111.65;;;45.80;;
17818;SDS011;9034;50.284;19.310;2022-11-11T01:31:20;116.53;;;47.75;;
17818;SDS011;9034;50.284;19.310;2022-11-11T01:32:43;115.47;;;45.30;;
17818;SDS011;9034;50.284;19.310;2022-11-11T01:34:07;109.18;;;49.03;;
17818;SDS011;9034;50.284;19.310;2022-11-11T01:35:30;108.45;;;42.63;;
17818;SDS011;9034;50.284;19.310;2022-11-11T01:36:51;96.70;;;41.28;;
17818;SDS011;9034;50.284;19.310;2022-11-11T01:38:14;99.43;;;42.55;;
17818;SDS011;9034;50.284;19.310;2022-11-11T01:39:35;108.07;;;44.35;;
17818;SDS011;9034;50.284;19.310;2022-11-11T01:40:58;108.70;;;45.47;;
17818;SDS011;9034;50.284;19.310;2022-11-11T01:42:20;106.35;;;45.30;;
17818;SDS011;9034;50.284;19.310;2022-11-11T01:43:41;100.30;;;43.28;;
17818;SDS011;9034;50.284;19.310;2022-11-11T01:46:58;89.95;;;40.08;;
17818;SDS011;9034;50.284;19.310;2022-11-11T01:48:26;94.35;;;40.97;;
17818;SDS011;9034;50.284;19.310;2022-11-11T01:50:10;86.35;;;37.40;;
17818;SDS011;9034;50.284;19.310;2022-11-11T01:51:33;68.82;;;35.15;;
17818;SDS011;9034;50.284;19.310;2022-11-11T01:52:57;96.57;;;45.03;;
17818;SDS011;9034;50.284;19.310;2022-11-11T01:54:19;103.57;;;49.42;;
17818;SDS011;9034;50.284;19.310;2022-11-11T01:55:43;97.20;;;42.28;;
17818;SDS011;9034;50.284;19.310;2022-11-11T01:57:07;93.45;;;43.95;;
17818;SDS011;9034;50.284;19.310;2022-11-11T01:58:33;89.30;;;42.08;;
17818;SDS011;9034;50.284;19.310;2022-11-11T01:59:55;86.45;;;38.83;;
17818;SDS011;9034;50.284;19.310;2022-11-11T02:01:21;88.00;;;43.00;;
17818;SDS011;9034;50.284;19.310;2022-11-11T02:02:43;105.13;;;46.22;;
17818;SDS011;9034;50.284;19.310;2022-11-11T02:04:07;91.22;;;45.60;;
17818;SDS011;9034;50.284;19.310;2022-11-11T02:05:50;101.82;;;43.92;;
17818;SDS011;9034;50.284;19.310;2022-11-11T02:07:15;85.95;;;42.92;;
17818;SDS011;9034;50.284;19.310;2022-11-11T02:08:37;106.63;;;49.20;;
17818;SDS011;9034;50.284;19.310;2022-11-11T02:09:59;94.15;;;44.75;;
17818;SDS011;9034;50.284;19.310;2022-11-11T02:11:22;103.22;;;51.95;;
17818;SDS011;9034;50.284;19.310;2022-11-11T02:13:05;99.82;;;47.53;;
17818;SDS011;9034;50.284;19.310;2022-11-11T02:14:49;98.65;;;47.33;;
17818;SDS011;9034;50.284;19.310;2022-11-11T02:16:13;125.88;;;54.88;;
17818;SDS011;9034;50.284;19.310;2022-11-11T02:17:35;111.10;;;52.55;;
17818;SDS011;9034;50.284;19.310;2022-11-11T02:18:57;110.78;;;50.42;;
17818;SDS011;9034;50.284;19.310;2022-11-11T02:20:20;112.43;;;52.40;;
17818;SDS011;9034;50.284;19.310;2022-11-11T02:21:48;110.10;;;51.67;;
17818;SDS011;9034;50.284;19.310;2022-11-11T02:23:13;112.32;;;55.33;;
17818;SDS011;9034;50.284;19.310;2022-11-11T02:24:38;114.82;;;54.22;;
17818;SDS011;9034;50.284;19.310;2022-11-11T02:26:02;106.35;;;51.90;;
17818;SDS011;9034;50.284;19.310;2022-11-11T02:27:25;126.25;;;55.47;;
17818;SDS011;9034;50.284;19.310;2022-11-11T02:28:48;107.82;;;52.10;;
17818;SDS011;9034;50.284;19.310;2022-11-11T02:30:11;99.78;;;50.90;;
17818;SDS011;9034;50.284;19.310;2022-11-11T02:31:36;139.68;;;56.20;;
17818;SDS011;9034;50.284;19.310;2022-11-11T02:32:59;122.72;;;57.53;;
17818;SDS011;9034;50.284;19.310;2022-11-11T02:34:26;119.40;;;55.22;;
17818;SDS011;9034;50.284;19.310;2022-11-11T02:35:49;106.65;;;53.25;;
17818;SDS011;9034;50.284;19.310;2022-11-11T02:37:21;123.15;;;59.67;;
17818;SDS011;9034;50.284;19.310;2022-11-11T02:38:44;124.85;;;58.90;;
17818;SDS011;9034;50.284;19.310;2022-11-11T02:40:08;138.93;;;61.00;;
17818;SDS011;9034;50.284;19.310;2022-11-11T02:41:32;113.25;;;57.60;;
17818;SDS011;9034;50.284;19.310;2022-11-11T02:43:12;123.93;;;63.15;;
17818;SDS011;9034;50.284;19.310;2022-11-11T02:44:35;107.10;;;52.05;;
17818;SDS011;9034;50.284;19.310;2022-11-11T02:45:57;149.57;;;67.30;;
17818;SDS011;9034;50.284;19.310;2022-11-11T02:47:19;142.30;;;71.63;;
17818;SDS011;9034;50.284;19.310;2022-11-11T02:48:40;167.65;;;72.93;;
17818;SDS011;9034;50.284;19.310;2022-11-11T02:50:03;129.30;;;63.67;;
17818;SDS011;9034;50.284;19.310;2022-11-11T02:51:26;130.27;;;66.38;;
17818;SDS011;9034;50.284;19.310;2022-11-11T02:52:47;135.55;;;65.10;;
17818;SDS011;9034;50.284;19.310;2022-11-11T02:54:09;164.65;;;70.95;;
17818;SDS011;9034;50.284;19.310;2022-11-11T02:55:32;142.95;;;69.18;;
17818;SDS011;9034;50.284;19.310;2022-11-11T02:56:54;127.72;;;62.70;;
17818;SDS011;9034;50.284;19.310;2022-11-11T02:58:30;106.95;;;52.72;;
17818;SDS011;9034;50.284;19.310;2022-11-11T02:59:53;126.65;;;61.13;;
17818;SDS011;9034;50.284;19.310;2022-11-11T03:01:15;110.13;;;56.20;;
17818;SDS011;9034;50.284;19.310;2022-11-11T03:02:39;139.05;;;61.65;;
17818;SDS011;9034;50.284;19.310;2022-11-11T03:04:02;153.85;;;63.13;;
17818;SDS011;9034;50.284;19.310;2022-11-11T03:05:24;136.65;;;61.20;;
17818;SDS011;9034;50.284;19.310;2022-11-11T03:06:47;117.57;;;56.22;;
17818;SDS011;9034;50.284;19.310;2022-11-11T03:08:08;98.07;;;51.70;;
17818;SDS011;9034;50.284;19.310;2022-11-11T03:09:30;95.95;;;50.17;;
17818;SDS011;9034;50.284;19.310;2022-11-11T03:10:55;108.68;;;53.25;;
17818;SDS011;9034;50.284;19.310;2022-11-11T03:12:17;124.25;;;52.70;;
17818;SDS011;9034;50.284;19.310;2022-11-11T03:13:39;103.72;;;50.35;;
17818;SDS011;9034;50.284;19.310;2022-11-11T03:15:02;100.97;;;51.75;;
17818;SDS011;9034;50.284;19.310;2022-11-11T03:16:25;121.43;;;52.13;;
17818;SDS011;9034;50.284;19.310;2022-11-11T03:18:01;110.15;;;49.30;;
17818;SDS011;9034;50.284;19.310;2022-11-11T03:19:24;102.47;;;49.45;;
17818;SDS011;9034;50.284;19.310;2022-11-11T03:20:46;107.50;;;49.15;;
17818;SDS011;9034;50.284;19.310;2022-11-11T03:22:57;98.30;;;49.33;;
17818;SDS011;9034;50.284;19.310;2022-11-11T03:24:21;102.85;;;47.85;;
17818;SDS011;9034;50.284;19.310;2022-11-11T03:25:43;94.43;;;47.00;;
17818;SDS011;9034;50.284;19.310;2022-11-11T03:27:08;102.53;;;48.13;;
17818;SDS011;9034;50.284;19.310;2022-11-11T03:28:29;99.60;;;49.10;;
17818;SDS011;9034;50.284;19.310;2022-11-11T03:29:51;112.60;;;50.58;;
17818;SDS011;9034;50.284;19.310;2022-11-11T03:31:13;132.07;;;54.80;;
17818;SDS011;9034;50.284;19.310;2022-11-11T03:32:36;108.45;;;51.08;;
17818;SDS011;9034;50.284;19.310;2022-11-11T03:34:00;117.15;;;51.53;;
17818;SDS011;9034;50.284;19.310;2022-11-11T03:35:36;114.07;;;51.03;;
17818;SDS011;9034;50.284;19.310;2022-11-11T03:37:00;105.15;;;50.05;;
17818;SDS011;9034;50.284;19.310;2022-11-11T03:38:40;110.65;;;52.35;;
17818;SDS011;9034;50.284;19.310;2022-11-11T03:40:01;99.10;;;49.47;;
17818;SDS011;9034;50.284;19.310;2022-11-11T03:41:24;100.32;;;50.25;;
17818;SDS011;9034;50.284;19.310;2022-11-11T03:42:49;101.97;;;52.20;;
17818;SDS011;9034;50.284;19.310;2022-11-11T03:44:10;110.93;;;52.90;;
17818;SDS011;9034;50.284;19.310;2022-11-11T03:45:35;106.57;;;53.33;;
17818;SDS011;9034;50.284;19.310;2022-11-11T03:46:56;115.85;;;53.33;;
17818;SDS011;9034;50.284;19.310;2022-11-11T03:48:19;119.13;;;54.20;;
17818;SDS011;9034;50.284;19.310;2022-11-11T03:49:42;117.30;;;52.17;;
17818;SDS011;9034;50.284;19.310;2022-11-11T03:51:06;119.70;;;53.63;;
17818;SDS011;9034;50.284;19.310;2022-11-11T03:52:28;117.95;;;51.72;;
17818;SDS011;9034;50.284;19.310;2022-11-11T03:53:50;110.45;;;50.85;;
17818;SDS011;9034;50.284;19.310;2022-11-11T03:55:12;122.22;;;52.80;;
17818;SDS011;9034;50.284;19.310;2022-11-11T03:56:34;124.57;;;53.80;;
17818;SDS011;9034;50.284;19.310;2022-11-11T03:57:57;116.72;;;55.53;;
17818;SDS011;9034;50.284;19.310;2022-11-11T03:59:20;150.70;;;54.22;;
17818;SDS011;9034;50.284;19.310;2022-11-11T04:00:41;185.40;;;58.60;;
17818;SDS011;9034;50.284;19.310;2022-11-11T04:02:04;144.98;;;51.13;;
17818;SDS011;9034;50.284;19.310;2022-11-11T04:03:44;200.82;;;57.05;;
17818;SDS011;9034;50.284;19.310;2022-11-11T04:05:35;108.80;;;46.45;;
17818;SDS011;9034;50.284;19.310;2022-11-11T04:07:15;120.07;;;48.75;;
17818;SDS011;9034;50.284;19.310;2022-11-11T04:08:55;671.45;;;91.25;;
17818;SDS011;9034;50.284;19.310;2022-11-11T04:10:36;783.13;;;98.55;;
17818;SDS011;9034;50.284;19.310;2022-11-11T04:11:59;287.63;;;53.83;;
17818;SDS011;9034;50.284;19.310;2022-11-11T04:13:22;618.10;;;75.78;;
17818;SDS011;9034;50.284;19.310;2022-11-11T04:15:03;632.42;;;86.45;;
17818;SDS011;9034;50.284;19.310;2022-11-11T04:16:42;449.98;;;64.07;;
17818;SDS011;9034;50.284;19.310;2022-11-11T04:18:05;318.33;;;54.25;;
17818;SDS011;9034;50.284;19.310;2022-11-11T04:19:29;707.42;;;103.55;;
17818;SDS011;9034;50.284;19.310;2022-11-11T04:21:10;229.02;;;53.40;;
17818;SDS011;9034;50.284;19.310;2022-11-11T04:22:50;197.43;;;46.78;;
17818;SDS011;9034;50.284;19.310;2022-11-11T04:24:16;160.50;;;48.63;;
17818;SDS011;9034;50.284;19.310;2022-11-11T04:25:59;257.23;;;51.58;;
17818;SDS011;9034;50.284;19.310;2022-11-11T04:27:20;148.25;;;44.72;;
17818;SDS011;9034;50.284;19.310;2022-11-11T04:28:47;288.17;;;54.17;;
17818;SDS011;9034;50.284;19.310;2022-11-11T04:30:26;250.07;;;52.90;;
17818;SDS011;9034;50.284;19.310;2022-11-11T04:31:47;296.58;;;56.28;;
17818;SDS011;9034;50.284;19.310;2022-11-11T04:33:31;192.18;;;45.75;;
17818;SDS011;9034;50.284;19.310;2022-11-11T04:34:54;399.20;;;57.90;;
17818;SDS011;9034;50.284;19.310;2022-11-11T04:36:16;431.50;;;61.65;;
17818;SDS011;9034;50.284;19.310;2022-11-11T04:37:43;282.15;;;45.63;;
17818;SDS011;9034;50.284;19.310;2022-11-11T04:39:07;332.90;;;49.28;;
17818;SDS011;9034;50.284;19.310;2022-11-11T04:40:47;310.77;;;52.47;;
17818;SDS011;9034;50.284;19.310;2022-11-11T04:42:25;288.33;;;47.40;;
17818;SDS011;9034;50.284;19.310;2022-11-11T04:43:49;295.27;;;50.17;;
17818;SDS011;9034;50.284;19.310;2022-11-11T04:45:28;137.15;;;37.83;;
17818;SDS011;9034;50.284;19.310;2022-11-11T04:46:53;97.80;;;36.75;;
17818;SDS011;9034;50.284;19.310;2022-11-11T04:48:17;327.88;;;52.47;;
17818;SDS011;9034;50.284;19.310;2022-11-11T04:49:40;192.30;;;42.60;;
17818;SDS011;9034;50.284;19.310;2022-11-11T04:51:01;268.05;;;52.15;;
17818;SDS011;9034;50.284;19.310;2022-11-11T04:52:24;353.17;;;54.60;;
17818;SDS011;9034;50.284;19.310;2022-11-11T04:53:48;162.98;;;39.67;;
17818;SDS011;9034;50.284;19.310;2022-11-11T04:55:11;240.60;;;46.33;;
17818;SDS011;9034;50.284;19.310;2022-11-11T04:56:51;166.50;;;41.97;;
17818;SDS011;9034;50.284;19.310;2022-11-11T04:58:14;206.45;;;48.45;;
17818;SDS011;9034;50.284;19.310;2022-11-11T04:59:41;206.80;;;48.30;;
17818;SDS011;9034;50.284;19.310;2022-11-11T05:01:03;395.60;;;61.60;;
17818;SDS011;9034;50.284;19.310;2022-11-11T05:02:25;404.50;;;62.72;;
17818;SDS011;9034;50.284;19.310;2022-11-11T05:04:05;354.45;;;58.88;;
17818;SDS011;9034;50.284;19.310;2022-11-11T05:05:28;300.63;;;55.55;;
17818;SDS011;9034;50.284;19.310;2022-11-11T05:07:15;386.15;;;60.58;;
17818;SDS011;9034;50.284;19.310;2022-11-11T05:08:56;149.80;;;41.55;;
17818;SDS011;9034;50.284;19.310;2022-11-11T05:10:18;93.50;;;37.15;;
17818;SDS011;9034;50.284;19.310;2022-11-11T05:11:40;95.07;;;38.67;;
17818;SDS011;9034;50.284;19.310;2022-11-11T05:13:03;101.28;;;39.33;;
17818;SDS011;9034;50.284;19.310;2022-11-11T05:14:44;291.45;;;57.78;;
17818;SDS011;9034;50.284;19.310;2022-11-11T05:16:25;189.90;;;45.17;;
17818;SDS011;9034;50.284;19.310;2022-11-11T05:18:07;240.20;;;45.85;;
17818;SDS011;9034;50.284;19.310;2022-11-11T05:19:48;119.72;;;39.50;;
17818;SDS011;9034;50.284;19.310;2022-11-11T05:21:28;95.80;;;38.55;;
17818;SDS011;9034;50.284;19.310;2022-11-11T05:22:51;104.68;;;39.95;;
17818;SDS011;9034;50.284;19.310;2022-11-11T05:24:16;136.95;;;43.13;;
17818;SDS011;9034;50.284;19.310;2022-11-11T05:25:55;73.60;;;34.53;;
17818;SDS011;9034;50.284;19.310;2022-11-11T05:27:17;80.25;;;36.45;;
17818;SDS011;9034;50.284;19.310;2022-11-11T05:28:41;109.90;;;42.15;;
17818;SDS011;9034;50.284;19.310;2022-11-11T05:30:05;148.35;;;42.97;;
17818;SDS011;9034;50.284;19.310;2022-11-11T05:31:29;81.80;;;37.45;;
17818;SDS011;9034;50.284;19.310;2022-11-11T05:32:53;131.25;;;43.63;;
17818;SDS011;9034;50.284;19.310;2022-11-11T05:34:15;189.65;;;49.25;;
17818;SDS011;9034;50.284;19.310;2022-11-11T05:35:37;270.23;;;51.97;;
17818;SDS011;9034;50.284;19.310;2022-11-11T05:37:00;126.57;;;41.72;;
17818;SDS011;9034;50.284;19.310;2022-11-11T05:38:21;421.30;;;63.10;;
17818;SDS011;9034;50.284;19.310;2022-11-11T05:39:44;102.75;;;40.78;;
17818;SDS011;9034;50.284;19.310;2022-11-11T05:41:05;478.25;;;71.07;;
17818;SDS011;9034;50.284;19.310;2022-11-11T05:42:29;170.45;;;46.25;;
17818;SDS011;9034;50.284;19.310;2022-11-11T05:43:51;241.70;;;48.60;;
17818;SDS011;9034;50.284;19.310;2022-11-11T05:45:15;224.20;;;48.03;;
17818;SDS011;9034;50.284;19.310;2022-11-11T05:46:37;193.80;;;48.15;;
17818;SDS011;9034;50.284;19.310;2022-11-11T05:48:00;188.77;;;44.00;;
17818;SDS011;9034;50.284;19.310;2022-11-11T05:49:24;132.32;;;40.55;;
17818;SDS011;9034;50.284;19.310;2022-11-11T05:50:45;101.60;;;38.45;;
17818;SDS011;9034;50.284;19.310;2022-11-11T05:52:08;131.98;;;41.55;;
17818;SDS011;9034;50.284;19.310;2022-11-11T05:53:31;197.02;;;47.38;;
17818;SDS011;9034;50.284;19.310;2022-11-11T05:54:53;210.82;;;45.78;;
17818;SDS011;9034;50.284;19.310;2022-11-11T05:56:16;79.57;;;34.53;;
17818;SDS011;9034;50.284;19.310;2022-11-11T05:57:39;97.88;;;35.10;;
17818;SDS011;9034;50.284;19.310;2022-11-11T05:59:01;162.57;;;41.65;;
17818;SDS011;9034;50.284;19.310;2022-11-11T06:00:26;96.65;;;36.20;;
17818;SDS011;9034;50.284;19.310;2022-11-11T06:01:49;79.10;;;32.95;;
17818;SDS011;9034;50.284;19.310;2022-11-11T06:03:13;83.05;;;35.30;;
17818;SDS011;9034;50.284;19.310;2022-11-11T06:04:35;95.07;;;35.97;;
17818;SDS011;9034;50.284;19.310;2022-11-11T06:05:57;183.35;;;44.22;;
17818;SDS011;9034;50.284;19.310;2022-11-11T06:07:20;107.30;;;39.88;;
17818;SDS011;9034;50.284;19.310;2022-11-11T06:08:42;133.48;;;41.30;;
17818;SDS011;9034;50.284;19.310;2022-11-11T06:10:04;131.23;;;42.97;;
17818;SDS011;9034;50.284;19.310;2022-11-11T06:11:44;191.68;;;46.75;;
17818;SDS011;9034;50.284;19.310;2022-11-11T06:13:07;166.20;;;43.58;;
17818;SDS011;9034;50.284;19.310;2022-11-11T06:14:29;155.88;;;45.05;;
17818;SDS011;9034;50.284;19.310;2022-11-11T06:15:54;135.80;;;42.78;;
17818;SDS011;9034;50.284;19.310;2022-11-11T06:17:16;194.93;;;49.83;;
17818;SDS011;9034;50.284;19.310;2022-11-11T06:18:38;151.68;;;46.67;;
17818;SDS011;9034;50.284;19.310;2022-11-11T06:20:00;94.20;;;38.42;;
17818;SDS011;9034;50.284;19.310;2022-11-11T06:21:23;99.20;;;37.60;;
17818;SDS011;9034;50.284;19.310;2022-11-11T06:22:46;85.75;;;37.08;;
17818;SDS011;9034;50.284;19.310;2022-11-11T06:24:16;84.50;;;37.80;;
17818;SDS011;9034;50.284;19.310;2022-11-11T06:25:45;102.45;;;37.95;;
17818;SDS011;9034;50.284;19.310;2022-11-11T06:27:25;83.95;;;34.22;;
17818;SDS011;9034;50.284;19.310;2022-11-11T06:28:48;86.30;;;37.58;;
17818;SDS011;9034;50.284;19.310;2022-11-11T06:30:11;127.07;;;38.20;;
17818;SDS011;9034;50.284;19.310;2022-11-11T06:31:54;117.20;;;37.95;;
17818;SDS011;9034;50.284;19.310;2022-11-11T06:33:17;103.28;;;40.20;;
17818;SDS011;9034;50.284;19.310;2022-11-11T06:34:38;81.90;;;38.45;;
17818;SDS011;9034;50.284;19.310;2022-11-11T06:36:01;82.90;;;36.00;;
17818;SDS011;9034;50.284;19.310;2022-11-11T06:37:22;147.95;;;46.95;;
17818;SDS011;9034;50.284;19.310;2022-11-11T06:38:45;106.05;;;40.17;;
17818;SDS011;9034;50.284;19.310;2022-11-11T06:40:08;337.98;;;58.30;;
17818;SDS011;9034;50.284;19.310;2022-11-11T06:41:34;344.10;;;60.30;;
17818;SDS011;9034;50.284;19.310;2022-11-11T06:42:56;132.98;;;44.25;;
17818;SDS011;9034;50.284;19.310;2022-11-11T06:44:18;102.25;;;39.90;;
17818;SDS011;9034;50.284;19.310;2022-11-11T06:45:40;196.38;;;46.45;;
17818;SDS011;9034;50.284;19.310;2022-11-11T06:47:03;362.85;;;59.25;;
17818;SDS011;9034;50.284;19.310;2022-11-11T06:48:26;254.45;;;47.30;;
17818;SDS011;9034;50.284;19.310;2022-11-11T06:49:48;301.70;;;54.63;;
17818;SDS011;9034;50.284;19.310;2022-11-11T06:51:10;265.67;;;49.80;;
17818;SDS011;9034;50.284;19.310;2022-11-11T06:52:33;321.15;;;55.60;;
17818;SDS011;9034;50.284;19.310;2022-11-11T06:53:55;266.77;;;49.85;;
17818;SDS011;9034;50.284;19.310;2022-11-11T06:55:18;482.35;;;67.30;;
17818;SDS011;9034;50.284;19.310;2022-11-11T06:56:39;183.80;;;42.60;;
17818;SDS011;9034;50.284;19.310;2022-11-11T06:58:04;333.90;;;57.58;;
17818;SDS011;9034;50.284;19.310;2022-11-11T06:59:26;113.75;;;39.92;;
17818;SDS011;9034;50.284;19.310;2022-11-11T07:00:49;326.20;;;56.17;;
17818;SDS011;9034;50.284;19.310;2022-11-11T07:02:13;130.18;;;42.08;;
17818;SDS011;9034;50.284;19.310;2022-11-11T07:03:35;78.25;;;35.65;;
17818;SDS011;9034;50.284;19.310;2022-11-11T07:04:58;77.53;;;35.45;;
17818;SDS011;9034;50.284;19.310;2022-11-11T07:06:21;118.40;;;39.67;;
17818;SDS011;9034;50.284;19.310;2022-11-11T07:07:43;170.00;;;43.80;;
17818;SDS011;9034;50.284;19.310;2022-11-11T07:09:04;197.15;;;47.90;;
17818;SDS011;9034;50.284;19.310;2022-11-11T07:10:27;415.98;;;63.25;;
17818;SDS011;9034;50.284;19.310;2022-11-11T07:11:48;440.17;;;60.38;;
17818;SDS011;9034;50.284;19.310;2022-11-11T07:13:11;292.60;;;52.30;;
17818;SDS011;9034;50.284;19.310;2022-11-11T07:14:33;250.90;;;49.40;;
17818;SDS011;9034;50.284;19.310;2022-11-11T07:15:56;212.45;;;47.70;;
17818;SDS011;9034;50.284;19.310;2022-11-11T07:17:19;82.40;;;35.95;;
17818;SDS011;9034;50.284;19.310;2022-11-11T07:18:42;88.78;;;36.60;;
17818;SDS011;9034;50.284;19.310;2022-11-11T07:20:05;95.65;;;38.45;;
17818;SDS011;9034;50.284;19.310;2022-11-11T07:21:28;68.82;;;34.10;;
17818;SDS011;9034;50.284;19.310;2022-11-11T07:22:50;84.03;;;38.00;;
17818;SDS011;9034;50.284;19.310;2022-11-11T07:24:12;75.20;;;36.63;;
17818;SDS011;9034;50.284;19.310;2022-11-11T07:25:35;84.03;;;37.92;;
17818;SDS011;9034;50.284;19.310;2022-11-11T07:26:57;88.57;;;37.22;;
17818;SDS011;9034;50.284;19.310;2022-11-11T07:28:21;101.82;;;38.85;;
17818;SDS011;9034;50.284;19.310;2022-11-11T07:29:44;101.28;;;40.10;;
17818;SDS011;9034;50.284;19.310;2022-11-11T07:31:08;110.78;;;41.80;;
17818;SDS011;9034;50.284;19.310;2022-11-11T07:32:32;108.28;;;39.67;;
17818;SDS011;9034;50.284;19.310;2022-11-11T07:33:54;122.82;;;40.72;;
17818;SDS011;9034;50.284;19.310;2022-11-11T07:35:18;108.40;;;40.17;;
17818;SDS011;9034;50.284;19.310;2022-11-11T07:36:40;76.95;;;35.63;;
17818;SDS011;9034;50.284;19.310;2022-11-11T07:38:03;69.80;;;35.17;;
17818;SDS011;9034;50.284;19.310;2022-11-11T07:39:26;71.05;;;34.20;;
17818;SDS011;9034;50.284;19.310;2022-11-11T07:40:48;68.55;;;32.20;;
17818;SDS011;9034;50.284;19.310;2022-11-11T07:42:10;63.30;;;32.97;;
17818;SDS011;9034;50.284;19.310;2022-11-11T07:43:50;77.00;;;35.05;;
17818;SDS011;9034;50.284;19.310;2022-11-11T07:45:12;62.65;;;33.42;;
17818;SDS011;9034;50.284;19.310;2022-11-11T07:46:35;74.60;;;34.55;;
17818;SDS011;9034;50.284;19.310;2022-11-11T07:47:59;69.88;;;35.33;;
17818;SDS011;9034;50.284;19.310;2022-11-11T07:49:22;71.82;;;34.80;;
17818;SDS011;9034;50.284;19.310;2022-11-11T07:50:44;70.63;;;34.58;;
17818;SDS011;9034;50.284;19.310;2022-11-11T07:52:06;68.60;;;35.35;;
17818;SDS011;9034;50.284;19.310;2022-11-11T07:53:28;70.05;;;36.40;;
17818;SDS011;9034;50.284;19.310;2022-11-11T07:54:50;60.25;;;34.40;;
17818;SDS011;9034;50.284;19.310;2022-11-11T07:56:13;64.93;;;35.55;;
17818;SDS011;9034;50.284;19.310;2022-11-11T07:57:36;61.42;;;35.05;;
17818;SDS011;9034;50.284;19.310;2022-11-11T07:58:58;61.53;;;36.38;;
17818;SDS011;9034;50.284;19.310;2022-11-11T08:00:20;60.58;;;34.50;;
17818;SDS011;9034;50.284;19.310;2022-11-11T08:01:43;58.45;;;34.25;;
17818;SDS011;9034;50.284;19.310;2022-11-11T08:03:07;55.35;;;32.75;;
17818;SDS011;9034;50.284;19.310;2022-11-11T08:04:30;58.63;;;34.50;;
17818;SDS011;9034;50.284;19.310;2022-11-11T08:05:54;55.47;;;33.22;;
17818;SDS011;9034;50.284;19.310;2022-11-11T08:07:16;52.30;;;32.40;;
17818;SDS011;9034;50.284;19.310;2022-11-11T08:08:42;53.10;;;31.92;;
17818;SDS011;9034;50.284;19.310;2022-11-11T08:10:05;55.70;;;30.42;;
17818;SDS011;9034;50.284;19.310;2022-11-11T08:11:28;50.63;;;29.30;;
17818;SDS011;9034;50.284;19.310;2022-11-11T08:13:08;44.28;;;26.33;;
17818;SDS011;9034;50.284;19.310;2022-11-11T08:14:48;40.28;;;24.23;;
17818;SDS011;9034;50.284;19.310;2022-11-11T08:16:11;45.05;;;23.77;;
17818;SDS011;9034;50.284;19.310;2022-11-11T08:17:37;38.55;;;23.67;;